Time;durP1;ratioP1;P1;durP2;ratioP2;P2;SDS_P1;SDS_P2;PMS_P1;PMS_P2;Temp;Humidity;BMP_temperature;BMP_pressure;BME280_temperature;BME280_humidity;BME280_pressure;Samples;Min_cycle;Max_cycle;Signal;HPM_P1;HPM_P2
2022/01/30 00:00:20;;;;;;;;;;;;;;;8.07;66.80;101543.41;4990910;28;19925;-68
2022/01/30 00:03:22;;;;;;;;;;;;;;;8.12;67.38;101541.53;4978783;28;19925;-69
2022/01/30 00:06:26;;;;;;;;;;;;;;;8.17;67.89;101557.06;4977707;28;19940;-68
2022/01/30 00:09:29;;;;;;;;;;;;;;;8.06;67.21;101551.25;4971438;28;20339;-68
2022/01/30 00:12:54;;;;;;;;;;;;;;;8.06;67.45;101565.13;4958863;28;20343;-68
2022/01/30 00:15:58;;;;;;;;;;;;;;;8.07;67.72;101556.44;4978611;28;19967;-69
2022/01/30 00:22:23;;;;;;;;;;;;;;;8.01;68.34;101550.50;4989896;28;19932;-68
2022/01/30 00:25:43;;;;;;;;;;;;;;;8.07;67.83;101542.53;4991159;28;19925;-69
2022/01/30 00:28:46;;;;;;;;;;;;;;;8.01;68.63;101538.38;4978239;28;20283;-68
2022/01/30 00:31:50;;;;;;;;;;;;;;;8.03;69.44;101528.75;4990224;28;19920;-68
2022/01/30 00:34:54;;;;;;;;;;;;;;;7.81;69.10;101548.41;4989906;28;19920;-68
2022/01/30 00:37:57;;;;;;;;;;;;;;;7.86;69.10;101536.13;4989519;28;20291;-68
2022/01/30 00:41:00;;;;;;;;;;;;;;;7.75;68.87;101551.16;4978102;28;20254;-69
2022/01/30 00:44:04;;;;;;;;;;;;;;;7.74;68.55;101549.44;4989723;28;19921;-68
2022/01/30 00:47:12;;;;;;;;;;;;;;;7.71;69.13;101546.91;4989932;28;19921;-68
2022/01/30 00:50:16;;;;;;;;;;;;;;;7.76;68.04;101555.50;4969482;28;20013;-68
2022/01/30 00:53:19;;;;;;;;;;;;;;;7.70;68.95;101551.28;4958118;28;19924;-68
2022/01/30 00:56:22;;;;;;;;;;;;;;;7.73;68.64;101561.63;4970945;28;19921;-68
2022/01/30 00:59:26;;;;;;;;;;;;;;;7.68;68.80;101555.66;4971280;28;19968;-68
2022/01/30 01:02:28;;;;;;;;;;;;;;;7.66;69.09;101552.25;4977741;28;20387;-68
2022/01/30 01:05:34;;;;;;;;;;;;;;;7.72;67.80;101565.09;4977346;28;19920;-68
2022/01/30 01:08:50;;;;;;;;;;;;;;;7.65;68.23;101564.38;4977251;28;20000;-68
2022/01/30 01:24:44;;;;;;;;;;;;;;;7.48;68.45;101561.31;4969787;28;20012;-68
2022/01/30 01:27:46;;;;;;;;;;;;;;;7.40;67.69;101568.44;4958568;28;19924;-68
2022/01/30 01:30:49;;;;;;;;;;;;;;;7.33;67.95;101580.72;4963431;28;19988;-68
2022/01/30 01:37:15;;;;;;;;;;;;;;;7.28;66.71;101574.78;4980607;28;19972;-68
2022/01/30 01:40:18;;;;;;;;;;;;;;;7.28;67.04;101574.78;4958452;28;20447;-68
2022/01/30 01:43:23;;;;;;;;;;;;;;;7.23;67.17;101582.69;4969523;28;20241;-68
2022/01/30 01:46:31;;;;;;;;;;;;;;;7.26;67.54;101586.13;4956341;28;19995;-68
2022/01/30 01:49:35;;;;;;;;;;;;;;;7.34;67.51;101582.47;4957386;28;20062;-68
2022/01/30 01:52:38;;;;;;;;;;;;;;;7.41;67.84;101578.84;4969460;28;19920;-68
2022/01/30 01:55:42;;;;;;;;;;;;;;;7.20;67.58;101577.53;4969372;28;20012;-68
2022/01/30 01:58:53;;;;;;;;;;;;;;;7.10;66.84;101580.38;4983460;28;19917;-68
2022/01/30 02:02:05;;;;;;;;;;;;;;;7.09;67.14;101576.94;4975696;28;19928;-68
2022/01/30 02:05:10;;;;;;;;;;;;;;;7.10;67.60;101581.22;4957216;28;19937;-68
2022/01/30 02:08:37;;;;;;;;;;;;;;;7.13;66.54;101594.19;4938435;29;19921;-68
2022/01/30 02:11:44;;;;;;;;;;;;;;;7.14;66.59;101593.28;4949935;29;19918;-68
2022/01/30 02:24:34;;;;;;;;;;;;;;;7.10;66.30;101594.22;4957674;28;19921;-68
2022/01/30 02:27:38;;;;;;;;;;;;;;;7.18;66.86;101607.94;4956748;28;20337;-68
2022/01/30 02:30:50;;;;;;;;;;;;;;;7.05;66.43;101593.50;4957726;28;20457;-69
2022/01/30 02:33:54;;;;;;;;;;;;;;;7.09;66.02;101595.13;4957661;28;19949;-68
2022/01/30 02:41:47;;;;;;;;;;;;;;;7.04;65.94;101602.16;4969104;28;19929;-68
2022/01/30 02:44:57;;;;;;;;;;;;;;;7.20;65.00;101598.34;4962010;28;20533;-68
2022/01/30 02:51:13;;;;;;;;;;;;;;;7.10;64.45;101622.00;4973627;28;19925;-68
2022/01/30 02:54:16;;;;;;;;;;;;;;;7.06;64.61;101621.19;4960568;28;20020;-66
2022/01/30 02:57:19;;;;;;;;;;;;;;;7.15;65.02;101626.22;4960788;28;20024;-68
2022/01/30 03:00:23;;;;;;;;;;;;;;;7.06;63.15;101623.81;4960590;28;19920;-68
2022/01/30 03:03:27;;;;;;;;;;;;;;;6.90;63.31;101630.19;4972695;28;20335;-67
2022/01/30 03:06:31;;;;;;;;;;;;;;;6.86;63.67;101639.81;4969944;28;19929;-67
2022/01/30 03:09:34;;;;;;;;;;;;;;;6.83;63.77;101652.84;4960150;28;19946;-68
2022/01/30 03:12:38;;;;;;;;;;;;;;;6.81;63.62;101645.97;4960954;28;19921;-67
2022/01/30 03:15:41;;;;;;;;;;;;;;;6.77;63.74;101645.16;4960886;28;19985;-66
2022/01/30 03:18:45;;;;;;;;;;;;;;;6.74;63.51;101650.44;4971827;28;20012;-67
2022/01/30 03:21:48;;;;;;;;;;;;;;;6.70;63.84;101654.81;4959530;28;19925;-67
2022/01/30 03:24:52;;;;;;;;;;;;;;;6.74;63.94;101666.03;4959995;28;19921;-67
2022/01/30 03:28:15;;;;;;;;;;;;;;;6.77;63.77;101672.91;4960115;28;19980;-71
2022/01/30 03:31:22;;;;;;;;;;;;;;;6.79;63.69;101678.91;4960067;28;19972;-66
2022/01/30 03:34:26;;;;;;;;;;;;;;;6.82;64.52;101681.47;4959929;28;19920;-66
2022/01/30 03:37:29;;;;;;;;;;;;;;;6.89;64.63;101683.06;4959462;28;19968;-67
2022/01/30 03:40:33;;;;;;;;;;;;;;;6.74;64.36;101692.88;4965632;28;19968;-66
2022/01/30 03:43:37;;;;;;;;;;;;;;;6.74;64.56;101682.47;4971735;28;20153;-66
2022/01/30 03:46:41;;;;;;;;;;;;;;;6.64;65.06;101688.72;4980155;28;19925;-66
2022/01/30 03:49:44;;;;;;;;;;;;;;;6.61;65.07;101687.91;4978061;28;19963;-65
2022/01/30 03:52:47;;;;;;;;;;;;;;;6.59;64.84;101698.31;4959561;28;19925;-66
2022/01/30 03:55:53;;;;;;;;;;;;;;;6.70;65.60;101693.81;4958882;28;19920;-65
2022/01/30 03:59:06;;;;;;;;;;;;;;;6.55;64.73;101701.00;4958869;28;19944;-66
2022/01/30 04:02:09;;;;;;;;;;;;;;;6.53;64.77;101695.81;4959433;28;19930;-66
2022/01/30 04:05:12;;;;;;;;;;;;;;;6.66;65.71;101709.47;4964381;28;19928;-65
2022/01/30 04:08:16;;;;;;;;;;;;;;;6.31;64.40;101718.69;4979233;28;19921;-65
2022/01/30 04:11:38;;;;;;;;;;;;;;;6.24;64.96;101709.28;4990839;28;19920;-66
2022/01/30 04:14:52;;;;;;;;;;;;;;;6.30;65.29;101716.97;4969920;28;19921;-66
2022/01/30 04:18:14;;;;;;;;;;;;;;;6.17;65.01;101713.72;4971586;28;19917;-66
2022/01/30 04:21:39;;;;;;;;;;;;;;;6.16;65.21;101711.13;4739062;28;10000366;-66
2022/01/30 04:25:03;;;;;;;;;;;;;;;6.01;65.96;101712.22;4963072;28;20032;-66
2022/01/30 04:28:28;;;;;;;;;;;;;;;6.10;66.19;101713.84;4987485;28;19924;-67
2022/01/30 04:31:49;;;;;;;;;;;;;;;6.04;66.93;101723.44;4987783;28;20145;-65
2022/01/30 04:35:00;;;;;;;;;;;;;;;6.05;66.56;101716.50;4977628;28;20426;-66
2022/01/30 04:38:37;;;;;;;;;;;;;;;5.98;66.66;101726.09;4974723;28;19924;-66
2022/01/30 04:42:09;;;;;;;;;;;;;;;5.94;66.72;101729.63;4987109;28;20346;-66
2022/01/30 04:56:54;;;;;;;;;;;;;;;5.80;67.56;101732.38;4987090;28;19939;-66
2022/01/30 05:03:58;;;;;;;;;;;;;;;5.67;68.74;101732.56;4978814;28;19925;-66
2022/01/30 05:10:27;;;;;;;;;;;;;;;5.71;68.42;101732.50;4985648;28;19960;-66
2022/01/30 05:13:42;;;;;;;;;;;;;;;5.65;68.67;101740.38;4986732;28;19971;-66
2022/01/30 05:17:05;;;;;;;;;;;;;;;5.68;68.88;101742.94;4978800;28;20454;-66
2022/01/30 05:20:39;;;;;;;;;;;;;;;5.61;68.82;101749.03;4975066;28;19936;-66
2022/01/30 05:23:57;;;;;;;;;;;;;;;5.68;68.96;101752.41;4976389;28;19924;-66
2022/01/30 05:27:10;;;;;;;;;;;;;;;5.62;68.68;101752.53;4973979;28;19960;-66
2022/01/30 05:30:25;;;;;;;;;;;;;;;5.62;69.07;101749.94;4972632;28;20822;-67
2022/01/30 05:33:40;;;;;;;;;;;;;;;5.63;68.89;101754.22;4987093;28;19964;-66
2022/01/30 05:37:22;;;;;;;;;;;;;;;5.67;68.09;101748.97;4918601;29;19924;-66
2022/01/30 05:40:44;;;;;;;;;;;;;;;5.75;67.78;101765.31;4929076;28;19929;-67
2022/01/30 05:44:20;;;;;;;;;;;;;;;5.53;67.53;101764.72;4967338;28;19973;-66
2022/01/30 05:47:54;;;;;;;;;;;;;;;5.54;68.25;101756.03;4946996;29;19945;-66
2022/01/30 05:51:10;;;;;;;;;;;;;;;5.51;67.88;101776.84;4935497;29;19924;-66
2022/01/30 05:54:21;;;;;;;;;;;;;;;5.57;67.91;101770.72;4935055;29;19922;-66
2022/01/30 05:57:24;;;;;;;;;;;;;;;5.51;68.00;101765.59;4935392;29;19973;-66
2022/01/30 06:00:30;;;;;;;;;;;;;;;5.50;68.22;101766.50;4949182;28;20446;-66
2022/01/30 06:03:35;;;;;;;;;;;;;;;5.62;68.32;101771.53;4955012;28;19924;-66
2022/01/30 06:06:47;;;;;;;;;;;;;;;5.82;68.29;101776.47;4967169;28;19925;-66
2022/01/30 06:09:50;;;;;;;;;;;;;;;5.74;67.78;101784.38;4966512;28;20345;-67
2022/01/30 06:12:53;;;;;;;;;;;;;;;5.70;67.84;101782.69;4950594;28;19941;-66
2022/01/30 06:15:57;;;;;;;;;;;;;;;5.72;68.52;101793.91;4954370;28;19924;-66
2022/01/30 06:19:01;;;;;;;;;;;;;;;5.65;68.74;101807.84;4943018;28;19973;-65
2022/01/30 06:22:40;;;;;;;;;;;;;;;5.59;69.41;101800.13;4943518;28;20020;-67
2022/01/30 06:26:03;;;;;;;;;;;;;;;5.56;69.15;101819.16;4966289;28;19925;-66
2022/01/30 06:29:25;;;;;;;;;;;;;;;5.57;69.27;101809.66;4965953;28;19920;-66
2022/01/30 06:32:47;;;;;;;;;;;;;;;5.67;69.26;101816.44;4966010;28;19946;-66
2022/01/30 06:36:10;;;;;;;;;;;;;;;5.54;68.79;101828.69;4942550;28;19948;-66
2022/01/30 06:39:19;;;;;;;;;;;;;;;5.62;68.36;101828.63;4950911;28;20345;-66
2022/01/30 06:42:35;;;;;;;;;;;;;;;5.82;68.44;101833.59;4951762;28;19928;-67
2022/01/30 06:45:57;;;;;;;;;;;;;;;5.61;68.31;101824.28;4984553;28;19924;-67
2022/01/30 06:49:19;;;;;;;;;;;;;;;5.59;68.63;101832.09;4628241;28;10000465;-67
2022/01/30 06:52:41;;;;;;;;;;;;;;;5.71;68.60;101838.91;4985364;28;19920;-67
2022/01/30 06:56:03;;;;;;;;;;;;;;;5.68;67.37;101831.16;4985746;28;19921;-67
2022/01/30 06:59:38;;;;;;;;;;;;;;;5.71;67.57;101832.84;4970427;28;20410;-67
2022/01/30 07:03:13;;;;;;;;;;;;;;;5.76;66.71;101831.91;4988426;28;19980;-67
2022/01/30 07:06:29;;;;;;;;;;;;;;;5.70;66.04;101821.59;4976415;28;20386;-67
2022/01/30 07:09:33;;;;;;;;;;;;;;;5.58;66.62;101814.84;4988180;28;20426;-65
2022/01/30 07:12:36;;;;;;;;;;;;;;;5.57;66.56;101822.63;4986942;28;19924;-65
2022/01/30 07:15:41;;;;;;;;;;;;;;;5.65;66.47;101820.81;4988024;28;19925;-66
2022/01/30 07:18:44;;;;;;;;;;;;;;;5.72;66.55;101827.66;4988928;28;19941;-66
2022/01/30 07:21:49;;;;;;;;;;;;;;;5.58;67.46;101835.59;4971637;28;20307;-66
2022/01/30 07:24:52;;;;;;;;;;;;;;;5.49;67.53;101830.50;4960657;28;19925;-66
2022/01/30 07:27:55;;;;;;;;;;;;;;;5.57;67.02;101848.56;4990102;28;20378;-66
2022/01/30 07:30:58;;;;;;;;;;;;;;;5.74;67.25;101850.97;4992375;28;19920;-66
2022/01/30 07:34:01;;;;;;;;;;;;;;;5.64;67.28;101849.34;4993637;28;19921;-67
2022/01/30 07:37:05;;;;;;;;;;;;;;;5.71;67.08;101857.06;4991838;28;19919;-66
2022/01/30 07:40:08;;;;;;;;;;;;;;;5.80;67.42;101862.13;4992617;28;20306;-66
2022/01/30 07:43:12;;;;;;;;;;;;;;;5.67;67.40;101868.34;4992975;28;19960;-66
2022/01/30 07:46:23;;;;;;;;;;;;;;;5.83;66.99;101869.88;4980707;28;20398;-66
2022/01/30 07:49:26;;;;;;;;;;;;;;;5.68;66.78;101874.38;4993142;28;20430;-67
2022/01/30 07:52:29;;;;;;;;;;;;;;;5.63;66.38;101879.63;4992457;28;20422;-67
2022/01/30 07:55:32;;;;;;;;;;;;;;;5.78;66.84;101876.88;4992704;28;20077;-67
2022/01/30 07:58:35;;;;;;;;;;;;;;;5.64;66.43;101881.34;4993476;28;19949;-67
2022/01/30 08:01:38;;;;;;;;;;;;;;;5.82;66.71;101880.31;4973283;28;20094;-67
2022/01/30 08:04:41;;;;;;;;;;;;;;;5.68;66.49;101888.25;4961394;28;19988;-67
2022/01/30 08:07:44;;;;;;;;;;;;;;;5.88;66.32;101900.16;4973388;28;20615;-66
2022/01/30 08:10:48;;;;;;;;;;;;;;;5.91;66.07;101905.31;4992736;28;20065;-67
2022/01/30 08:13:51;;;;;;;;;;;;;;;6.04;66.59;101901.72;4980537;28;19920;-67
2022/01/30 08:16:54;;;;;;;;;;;;;;;5.90;66.08;101908.78;4992801;28;19967;-67
2022/01/30 08:19:57;;;;;;;;;;;;;;;5.73;66.17;101912.41;4980708;28;20012;-67
2022/01/30 08:23:06;;;;;;;;;;;;;;;5.59;65.99;101914.28;4991719;28;20009;-67
2022/01/30 08:26:10;;;;;;;;;;;;;;;5.67;65.18;101909.88;4991458;28;19921;-66
2022/01/30 08:29:12;;;;;;;;;;;;;;;5.87;64.15;101917.47;4992373;28;20032;-68
2022/01/30 08:32:15;;;;;;;;;;;;;;;5.79;64.27;101916.69;4992432;28;19920;-67
2022/01/30 08:35:19;;;;;;;;;;;;;;;5.92;64.59;101917.41;4985372;28;20390;-67
2022/01/30 08:38:22;;;;;;;;;;;;;;;5.90;63.59;101929.53;4982974;28;19971;-67
2022/01/30 08:41:25;;;;;;;;;;;;;;;5.88;62.59;101921.78;4976620;28;20495;-67
2022/01/30 08:44:29;;;;;;;;;;;;;;;5.73;61.84;101927.13;4985400;28;19921;-66
2022/01/30 08:47:33;;;;;;;;;;;;;;;5.81;62.17;101926.19;4966242;28;19940;-67
2022/01/30 08:50:36;;;;;;;;;;;;;;;5.68;63.05;101929.78;4989277;28;20023;-67
2022/01/30 08:53:39;;;;;;;;;;;;;;;5.87;62.21;101933.06;4989399;28;20535;-67
2022/01/30 08:56:42;;;;;;;;;;;;;;;5.80;61.92;101929.63;4989929;28;20033;-67
2022/01/30 08:59:46;;;;;;;;;;;;;;;5.74;62.42;101934.91;4988018;28;19925;-67
2022/01/30 09:02:49;;;;;;;;;;;;;;;5.83;62.10;101916.63;4988828;28;20283;-67
2022/01/30 09:05:52;;;;;;;;;;;;;;;5.86;62.34;101922.66;4988882;28;19920;-66
2022/01/30 09:08:55;;;;;;;;;;;;;;;5.94;61.97;101920.91;4989730;28;19940;-66
2022/01/30 09:12:03;;;;;;;;;;;;;;;5.76;59.89;101927.94;4976975;28;19971;-66
2022/01/30 09:15:07;;;;;;;;;;;;;;;5.72;60.03;101925.41;4989197;28;19928;-66
2022/01/30 09:18:11;;;;;;;;;;;;;;;5.82;60.54;101912.31;4989123;28;19956;-67
2022/01/30 09:21:14;;;;;;;;;;;;;;;5.90;60.71;101906.16;4987075;28;19976;-65
2022/01/30 09:24:17;;;;;;;;;;;;;;;5.90;60.88;101903.56;4989311;28;20334;-65
2022/01/30 09:27:20;;;;;;;;;;;;;;;5.70;61.14;101893.41;4988548;28;19968;-65
2022/01/30 09:30:23;;;;;;;;;;;;;;;5.57;61.67;101903.91;4989204;28;20323;-67
2022/01/30 09:33:26;;;;;;;;;;;;;;;5.57;62.74;101908.25;4976381;28;19993;-67
2022/01/30 09:36:29;;;;;;;;;;;;;;;5.75;62.46;101902.03;4987696;28;19945;-67
2022/01/30 09:39:32;;;;;;;;;;;;;;;5.79;63.21;101912.34;4993654;28;20007;-67
2022/01/30 09:42:36;;;;;;;;;;;;;;;5.99;63.01;101919.09;5007949;28;19924;-67
2022/01/30 09:45:40;;;;;;;;;;;;;;;5.94;62.09;101902.72;5008511;28;20022;-66
2022/01/30 09:48:46;;;;;;;;;;;;;;;5.94;62.45;101898.38;4987428;28;20028;-75
2022/01/30 09:51:57;;;;;;;;;;;;;;;6.10;62.40;101890.44;4988250;28;20298;-71
2022/01/30 09:55:00;;;;;;;;;;;;;;;6.79;60.68;101892.09;4983689;28;20020;-63
2022/01/30 09:58:05;;;;;;;;;;;;;;;7.01;59.64;101888.28;4968453;28;19924;-63
2022/01/30 10:01:09;;;;;;;;;;;;;;;7.09;59.69;101895.97;4969039;28;19941;-63
2022/01/30 10:04:12;;;;;;;;;;;;;;;7.11;59.72;101900.25;4984760;28;19923;-74
2022/01/30 10:07:18;;;;;;;;;;;;;;;6.19;61.76;101900.66;4988796;28;19952;-72
2022/01/30 10:10:25;;;;;;;;;;;;;;;6.23;61.97;101898.03;4985390;28;19924;-72
2022/01/30 10:13:33;;;;;;;;;;;;;;;5.86;63.03;101896.72;4985873;28;19924;-72
2022/01/30 10:16:41;;;;;;;;;;;;;;;5.71;63.84;101902.91;4985836;28;19920;-73
2022/01/30 10:19:49;;;;;;;;;;;;;;;5.64;64.54;101916.81;4982348;28;19929;-74
2022/01/30 10:22:52;;;;;;;;;;;;;;;5.71;64.03;101932.34;4973609;28;19976;-73
2022/01/30 10:25:56;;;;;;;;;;;;;;;5.80;64.11;101940.00;4973102;28;19921;-77
2022/01/30 10:29:16;;;;;;;;;;;;;;;6.39;63.91;101945.47;4961423;28;19969;-61
2022/01/30 10:32:21;;;;;;;;;;;;;;;6.95;62.62;101948.19;4973408;28;19921;-60
2022/01/30 10:35:26;;;;;;;;;;;;;;;7.31;59.76;101956.34;4972920;28;20391;-59
2022/01/30 10:38:36;;;;;;;;;;;;;;;7.52;58.52;101949.91;4983667;28;19925;-59
2022/01/30 10:41:53;;;;;;;;;;;;;;;7.56;58.81;101949.84;4947997;28;20234;-61
2022/01/30 10:44:56;;;;;;;;;;;;;;;7.16;59.64;101950.47;4965407;28;20044;-68
2022/01/30 10:48:09;;;;;;;;;;;;;;;7.23;59.27;101949.47;4970409;28;20425;-82
2022/01/30 10:51:14;;;;;;;;;;;;;;;6.53;59.96;101942.69;4977388;28;19973;-84
2022/01/30 10:54:17;;;;;;;;;;;;;;;6.18;59.66;101941.38;4945215;28;20395;-73
2022/01/30 11:03:44;;;;;;;;;;;;;;;6.24;59.13;101933.50;3135823;26;19929;-68
2022/01/30 11:28:24;;;;;;;24.70;5.85;;;;;;;6.32;57.80;101923.06;6215671;23;20048;-68
2022/01/30 11:31:30;;;;;;;28.08;5.30;;;;;;;6.20;58.10;101929.25;6216437;23;20079;-68
2022/01/30 11:35:28;;;;;;;29.95;7.50;;;;;;;6.28;57.64;101919.59;6212446;23;20023;-68
2022/01/30 11:38:37;;;;;;;24.90;5.60;;;;;;;6.33;56.72;101921.31;6216629;23;20083;-68
2022/01/30 11:42:33;;;;;;;27.48;5.35;;;;;;;6.13;56.71;101935.38;6213812;23;20339;-68
2022/01/30 11:45:40;;;;;;;29.38;5.25;;;;;;;6.03;57.48;101926.84;6122564;23;20028;-68
2022/01/30 11:49:11;;;;;;;21.10;5.00;;;;;;;6.33;56.86;101935.16;6153132;23;20127;-67
2022/01/30 11:58:18;;;;;;;27.33;5.47;;;;;;;6.23;56.14;101931.81;6215704;23;20017;-67
2022/01/30 12:01:50;;;;;;;24.15;4.43;;;;;;;6.41;56.22;101927.25;6215431;23;20027;-68
2022/01/30 12:05:38;;;;;;;29.45;7.07;;;;;;;6.27;55.59;101930.88;6215550;23;20024;-68
2022/01/30 12:09:39;;;;;;;24.40;4.30;;;;;;;6.10;56.35;101929.38;6215585;23;20043;-68
2022/01/30 12:12:59;;;;;;;26.83;4.85;;;;;;;6.17;55.63;101926.69;6216147;23;20051;-67
2022/01/30 12:16:04;;;;;;;25.10;4.95;;;;;;;6.23;55.58;101924.00;6213327;23;20030;-68
2022/01/30 12:19:08;;;;;;;17.85;4.65;;;;;;;6.29;56.00;101921.34;6211122;23;20019;-67
2022/01/30 12:22:38;;;;;;;25.45;5.80;;;;;;;6.14;55.29;101918.91;6208576;23;20402;-68
2022/01/30 12:26:35;;;;;;;25.20;4.90;;;;;;;6.39;55.00;101918.63;6206352;23;20081;-68
2022/01/30 12:30:04;;;;;;;;;;;;;;;6.60;54.26;101920.06;6209128;23;20098;-68
2022/01/30 12:33:32;;;;;;;25.42;5.75;;;;;;;6.48;54.84;101906.38;6209522;23;19954;-68
2022/01/30 12:36:53;;;;;;;31.60;5.15;;;;;;;6.54;54.43;101908.06;6207171;23;20460;-68
2022/01/30 12:45:21;;;;;;;27.58;5.25;;;;;;;6.73;54.25;101887.81;6237505;23;20016;-67
2022/01/30 12:54:03;;;;;;;27.52;6.03;;;;;;;6.82;54.94;101898.09;6208818;23;20028;-67
2022/01/30 12:58:07;;;;;;;23.63;6.15;;;;;;;6.67;55.10;101886.19;6208312;23;20252;-69
2022/01/30 13:01:14;;;;;;;20.55;6.05;;;;;;;6.67;54.80;101881.00;6235096;23;20047;-69
2022/01/30 13:14:05;;;;;;;18.77;4.22;;;;;;;6.53;55.88;101863.00;6206737;23;20063;-68
2022/01/30 13:17:10;;;;;;;24.15;4.88;;;;;;;6.46;55.85;101879.56;6207281;23;20023;-68
2022/01/30 13:20:21;;;;;;;33.90;6.40;;;;;;;6.55;56.18;101875.97;6207740;23;20256;-68
2022/01/30 13:23:28;;;;;;;22.23;4.15;;;;;;;6.37;55.61;101873.63;6204747;23;20043;-69
2022/01/30 13:26:44;;;;;;;32.55;6.43;;;;;;;6.36;55.86;101867.56;6206806;23;20538;-68
2022/01/30 13:29:58;;;;;;;20.83;7.13;;;;;;;6.34;56.01;101878.84;6206284;23;20459;-68
2022/01/30 13:33:04;;;;;;;30.55;9.07;;;;;;;6.54;56.31;101879.47;6205593;23;20351;-68
2022/01/30 13:36:24;;;;;;;28.77;8.43;;;;;;;6.63;55.56;101875.84;6206214;23;20032;-68
2022/01/30 13:40:04;;;;;;;24.35;5.70;;;;;;;6.49;55.92;101873.47;6210094;23;20028;-68
2022/01/30 13:43:21;;;;;;;28.15;5.40;;;;;;;6.53;55.70;101869.94;6206435;23;20032;-68
2022/01/30 13:49:50;;;;;;;20.88;5.07;;;;;;;6.40;56.78;101873.59;6206449;23;20464;-68
2022/01/30 13:53:31;;;;;;;24.95;4.82;;;;;;;6.45;57.02;101884.78;6206158;23;20516;-68
2022/01/30 13:56:45;;;;;;;25.85;5.90;;;;;;;6.39;56.84;101884.88;6167141;23;20249;-68
2022/01/30 14:00:07;;;;;;;18.38;4.28;;;;;;;6.25;57.86;101896.28;6204768;23;20606;-67
2022/01/30 14:03:22;;;;;;;22.15;5.57;;;;;;;6.35;57.91;101890.94;6208765;23;20031;-68
2022/01/30 14:06:28;;;;;;;28.48;6.60;;;;;;;6.31;57.21;101878.88;6208918;23;20031;-68
2022/01/30 14:09:43;;;;;;;21.38;5.63;;;;;;;6.28;55.27;101888.44;6208324;23;20094;-67
2022/01/30 14:13:03;;;;;;;36.85;13.65;;;;;;;6.22;54.33;101888.53;6206795;23;20027;-68
2022/01/30 14:16:19;;;;;;;24.30;5.45;;;;;;;6.22;54.09;101891.13;6208582;23;20123;-68
2022/01/30 14:20:01;;;;;;;32.08;7.85;;;;;;;6.27;53.13;101891.91;6189978;23;20031;-67
2022/01/30 14:23:11;;;;;;;57.67;15.93;;;;;;;6.21;51.97;101884.19;6207940;23;20437;-68
2022/01/30 14:26:30;;;;;;;44.28;13.90;;;;;;;6.43;51.35;101871.78;6208134;23;20027;-68
2022/01/30 14:29:37;;;;;;;24.17;5.82;;;;;;;6.42;51.49;101887.41;6206136;23;20054;-67
2022/01/30 14:32:46;;;;;;;49.10;13.93;;;;;;;6.44;51.71;101872.66;6210074;23;20028;-68
2022/01/30 14:35:53;;;;;;;56.47;22.98;;;;;;;6.70;52.19;101867.97;6210401;23;20086;-68
2022/01/30 14:38:58;;;;;;;36.97;8.20;;;;;;;6.93;50.85;101866.75;6209749;23;20028;-68
2022/01/30 14:42:06;;;;;;;25.67;5.22;;;;;;;6.79;51.02;101871.28;6207580;23;20650;-68
2022/01/30 14:45:10;;;;;;;40.90;11.93;;;;;;;6.63;52.36;101863.72;6192075;23;20039;-68
2022/01/30 14:48:19;;;;;;;33.90;7.68;;;;;;;6.95;52.15;101859.78;6208438;23;20030;-67
2022/01/30 14:51:24;;;;;;;25.30;5.97;;;;;;;6.71;50.94;101866.22;6208871;23;20023;-68
2022/01/30 14:54:27;;;;;;;27.20;5.65;;;;;;;6.46;51.54;101855.31;6208866;23;20510;-68
2022/01/30 14:57:32;;;;;;;26.63;6.15;;;;;;;6.45;52.20;101849.25;6208897;23;20035;-68
2022/01/30 15:05:47;;;;;;;22.63;5.95;;;;;;;6.59;51.85;101843.84;6209953;23;20343;-68
2022/01/30 15:08:52;;;;;;;32.78;6.70;;;;;;;6.66;51.75;101842.88;6207179;23;20023;-68
2022/01/30 15:11:57;;;;;;;31.67;7.80;;;;;;;6.57;51.73;101834.34;6210217;23;20024;-68
2022/01/30 15:15:02;;;;;;;28.33;6.68;;;;;;;6.40;52.19;101835.47;6209094;23;20027;-68
2022/01/30 15:18:16;;;;;;;32.60;9.25;;;;;;;6.36;52.89;101832.94;6207445;23;20023;-68
2022/01/30 15:21:24;;;;;;;57.00;14.20;;;;;;;6.38;53.27;101828.56;6207916;23;20027;-68
2022/01/30 15:28:51;;;;;;;30.27;10.23;;;;;;;6.34;53.31;101822.56;6162027;23;20099;-67
2022/01/30 15:31:55;;;;;;;28.95;6.80;;;;;;;6.39;54.29;101820.75;6177135;23;20083;-68
2022/01/30 15:34:59;;;;;;;24.50;7.20;;;;;;;6.31;54.09;101812.22;6179457;23;20582;-68
2022/01/30 15:38:03;;;;;;;25.10;6.60;;;;;;;6.42;55.29;101812.06;6178437;23;20413;-68
2022/01/30 15:41:09;;;;;;;26.80;6.18;;;;;;;6.73;55.35;101815.94;6178285;23;20547;-68
2022/01/30 15:44:15;;;;;;;28.88;6.40;;;;;;;6.51;51.99;101809.34;6178747;23;20028;-68
2022/01/30 15:50:41;;;;;;;23.40;6.93;;;;;;;6.63;53.72;101813.47;6179668;23;20581;-67
2022/01/30 15:53:49;;;;;;;30.55;5.40;;;;;;;6.61;54.75;101804.88;6162173;23;20028;-68
2022/01/30 15:56:55;;;;;;;20.08;5.38;;;;;;;6.79;55.11;101808.91;6163567;23;20059;-68
2022/01/30 16:00:00;;;;;;;29.38;5.22;;;;;;;6.75;54.75;101800.28;6181404;23;20024;-68
2022/01/30 16:03:06;;;;;;;29.45;7.45;;;;;;;6.57;53.79;101796.22;6180440;23;20352;-67
2022/01/30 16:07:01;;;;;;;21.60;4.78;;;;;;;6.55;54.78;101792.81;6156515;23;20060;-67
2022/01/30 16:10:18;;;;;;;24.65;6.05;;;;;;;6.41;55.12;101793.00;6177929;23;20071;-68
2022/01/30 16:16:48;;;;;;;30.20;6.53;;;;;;;6.49;56.68;101800.69;6180441;23;20322;-68
2022/01/30 16:19:53;;;;;;;25.88;6.72;;;;;;;6.25;56.89;101802.78;6162060;23;20087;-67
2022/01/30 16:23:03;;;;;;;24.08;5.00;;;;;;;6.28;58.07;101797.50;6160971;23;20047;-68
2022/01/30 16:42:03;;;;;;;20.15;4.55;;;;;;;5.34;63.21;101809.88;6180865;23;20028;-68
2022/01/30 16:45:17;;;;;;;23.27;4.95;;;;;;;5.17;61.45;101807.47;6180299;23;20028;-68
2022/01/30 16:48:23;;;;;;;24.05;4.93;;;;;;;5.13;63.95;101804.03;6179925;23;20023;-68
2022/01/30 16:51:29;;;;;;;27.15;5.93;;;;;;;5.17;63.80;101801.41;6162696;23;20028;-68
2022/01/30 16:54:34;;;;;;;27.50;7.50;;;;;;;4.98;63.50;101795.53;6179991;23;20068;-67
2022/01/30 16:57:39;;;;;;;22.67;5.22;;;;;;;4.86;63.33;101797.38;6180429;23;20705;-67
2022/01/30 17:00:44;;;;;;;27.42;6.70;;;;;;;4.93;64.48;101792.13;6178449;23;20088;-67
2022/01/30 17:03:51;;;;;;;20.85;5.10;;;;;;;4.94;64.73;101788.66;6178520;23;20024;-68
2022/01/30 17:06:58;;;;;;;20.92;5.22;;;;;;;4.61;65.13;101786.31;6178384;23;20454;-67
2022/01/30 17:10:09;;;;;;;24.70;4.85;;;;;;;4.69;64.97;101798.34;6178749;23;20510;-67
2022/01/30 17:13:16;;;;;;;18.17;4.72;;;;;;;4.70;65.35;101800.94;6161871;23;20466;-67
2022/01/30 17:16:24;;;;;;;28.17;5.80;;;;;;;4.78;66.79;101798.28;6160686;23;20064;-67
2022/01/30 17:19:34;;;;;;;20.23;4.93;;;;;;;4.66;65.65;101786.31;6179564;23;20067;-67
2022/01/30 17:22:43;;;;;;;22.58;5.72;;;;;;;4.74;65.66;101779.31;6161616;23;20032;-67
2022/01/30 17:25:54;;;;;;;25.83;7.88;;;;;;;4.79;65.94;101787.94;6179180;23;20027;-67
2022/01/30 17:29:02;;;;;;;112.07;37.97;;;;;;;4.82;66.20;101785.31;6179166;23;20028;-68
2022/01/30 17:32:09;;;;;;;77.63;27.40;;;;;;;4.73;66.91;101767.25;6179393;23;20036;-67
2022/01/30 17:35:17;;;;;;;51.38;15.82;;;;;;;4.74;67.80;101770.69;6144222;23;20384;-67
2022/01/30 17:38:24;;;;;;;23.95;7.65;;;;;;;4.75;68.47;101765.47;6178844;23;20391;-67
2022/01/30 17:41:31;;;;;;;17.38;4.97;;;;;;;4.60;68.39;101763.03;6161166;23;20023;-67
2022/01/30 17:44:42;;;;;;;30.95;8.60;;;;;;;4.43;68.06;101750.19;6177891;23;20176;-67
2022/01/30 17:47:50;;;;;;;25.33;6.70;;;;;;;4.35;68.97;101744.22;6144366;23;20074;-68
2022/01/30 17:50:57;;;;;;;34.05;7.00;;;;;;;4.27;68.92;101744.25;6179131;23;20401;-67
2022/01/30 17:54:04;;;;;;;25.83;5.63;;;;;;;4.16;69.37;101751.25;6178904;23;20047;-68
2022/01/30 17:57:12;;;;;;;19.08;4.57;;;;;;;4.04;70.02;101748.72;6178688;23;20039;-67
2022/01/30 18:00:21;;;;;;;24.20;6.15;;;;;;;4.02;68.92;101745.28;6160778;23;20028;-68
2022/01/30 18:03:28;;;;;;;23.42;5.40;;;;;;;3.94;69.79;101738.44;6178806;23;20065;-68
2022/01/30 18:06:34;;;;;;;25.45;6.18;;;;;;;3.74;69.58;101737.69;6178007;23;20155;-68
2022/01/30 18:09:40;;;;;;;22.67;5.60;;;;;;;3.77;69.27;101735.06;6161498;23;20044;-67
2022/01/30 18:12:47;;;;;;;23.23;6.20;;;;;;;3.80;69.36;101727.31;6159462;23;20032;-67
2022/01/30 18:15:53;;;;;;;21.77;4.72;;;;;;;3.71;70.49;101722.16;6144306;23;20027;-67